sensor_id;sensor_type;location;lat;lon;timestamp;pressure;altitude;pressure_sealevel;temperature;humidity
43804;BME280;29430;52.924;-2.388;2022-08-19T00:02:43;98767.06;;;17.75;94.31
43804;BME280;29430;52.924;-2.388;2022-08-19T00:07:42;98781.38;;;17.72;94.45
43804;BME280;29430;52.924;-2.388;2022-08-19T00:12:34;98771.50;;;17.71;94.46
43804;BME280;29430;52.924;-2.388;2022-08-19T00:17:34;98774.75;;;17.73;94.74
43804;BME280;29430;52.924;-2.388;2022-08-19T00:22:32;98779.66;;;17.76;95.14
43804;BME280;29430;52.924;-2.388;2022-08-19T00:27:24;98787.38;;;17.74;95.13
43804;BME280;29430;52.924;-2.388;2022-08-19T00:32:17;98797.25;;;17.75;95.25
43804;BME280;29430;52.924;-2.388;2022-08-19T00:37:09;98805.75;;;17.74;95.20
43804;BME280;29430;52.924;-2.388;2022-08-19T00:42:01;98799.16;;;17.75;95.57
43804;BME280;29430;52.924;-2.388;2022-08-19T00:46:55;98818.34;;;17.75;95.80
43804;BME280;29430;52.924;-2.388;2022-08-19T00:51:52;98822.28;;;17.63;84.96
43804;BME280;29430;52.924;-2.388;2022-08-19T00:56:44;98834.19;;;17.48;79.36
43804;BME280;29430;52.924;-2.388;2022-08-19T01:01:39;98835.66;;;17.35;77.91
43804;BME280;29430;52.924;-2.388;2022-08-19T01:06:32;98838.16;;;17.27;76.00
43804;BME280;29430;52.924;-2.388;2022-08-19T01:11:27;98831.34;;;17.19;75.04
43804;BME280;29430;52.924;-2.388;2022-08-19T01:16:22;98830.59;;;17.08;71.99
43804;BME280;29430;52.924;-2.388;2022-08-19T01:26:17;98837.84;;;16.89;70.37
43804;BME280;29430;52.924;-2.388;2022-08-19T01:31:13;98844.97;;;16.79;70.04
43804;BME280;29430;52.924;-2.388;2022-08-19T01:41:21;98847.50;;;16.65;68.87
43804;BME280;29430;52.924;-2.388;2022-08-19T01:46:14;98850.22;;;16.60;69.00
43804;BME280;29430;52.924;-2.388;2022-08-19T01:51:07;98854.09;;;16.59;69.68
43804;BME280;29430;52.924;-2.388;2022-08-19T01:56:00;98861.22;;;16.55;68.57
43804;BME280;29430;52.924;-2.388;2022-08-19T02:00:52;98866.44;;;16.52;68.11
43804;BME280;29430;52.924;-2.388;2022-08-19T02:05:44;98862.31;;;16.49;68.11
43804;BME280;29430;52.924;-2.388;2022-08-19T02:10:43;98870.81;;;16.42;68.09
43804;BME280;29430;52.924;-2.388;2022-08-19T02:15:35;98872.47;;;16.38;68.14
43804;BME280;29430;52.924;-2.388;2022-08-19T02:20:27;98872.72;;;16.42;68.13
43804;BME280;29430;52.924;-2.388;2022-08-19T02:25:19;98879.03;;;16.42;67.50
43804;BME280;29430;52.924;-2.388;2022-08-19T02:30:14;98879.88;;;16.38;67.30
43804;BME280;29430;52.924;-2.388;2022-08-19T02:35:07;98889.69;;;16.39;67.10
43804;BME280;29430;52.924;-2.388;2022-08-19T02:40:03;98884.50;;;16.37;66.75
43804;BME280;29430;52.924;-2.388;2022-08-19T02:45:03;98875.22;;;16.33;66.99
43804;BME280;29430;52.924;-2.388;2022-08-19T02:49:56;98875.50;;;16.26;66.59
43804;BME280;29430;52.924;-2.388;2022-08-19T02:54:48;98874.69;;;16.21;66.84
43804;BME280;29430;52.924;-2.388;2022-08-19T02:59:41;98875.78;;;16.09;67.02
43804;BME280;29430;52.924;-2.388;2022-08-19T03:04:33;98875.81;;;15.99;67.90
43804;BME280;29430;52.924;-2.388;2022-08-19T03:09:24;98880.44;;;15.83;67.89
43804;BME280;29430;52.924;-2.388;2022-08-19T03:14:16;98883.44;;;15.66;68.40
43804;BME280;29430;52.924;-2.388;2022-08-19T03:19:09;98874.94;;;15.52;68.96
43804;BME280;29430;52.924;-2.388;2022-08-19T03:24:05;98881.72;;;15.39;69.72
43804;BME280;29430;52.924;-2.388;2022-08-19T03:28:57;98874.34;;;15.25;69.74
43804;BME280;29430;52.924;-2.388;2022-08-19T03:33:55;98883.31;;;15.15;69.82
43804;BME280;29430;52.924;-2.388;2022-08-19T03:38:52;98888.22;;;15.08;69.94
43804;BME280;29430;52.924;-2.388;2022-08-19T03:43:51;98902.91;;;14.96;70.12
43804;BME280;29430;52.924;-2.388;2022-08-19T03:48:44;98918.72;;;14.89;70.47
43804;BME280;29430;52.924;-2.388;2022-08-19T03:53:35;98914.03;;;14.79;71.10
43804;BME280;29430;52.924;-2.388;2022-08-19T03:58:29;98921.34;;;14.68;71.32
43804;BME280;29430;52.924;-2.388;2022-08-19T04:03:22;98923.16;;;14.58;71.53
43804;BME280;29430;52.924;-2.388;2022-08-19T04:08:14;98922.59;;;14.50;71.72
43804;BME280;29430;52.924;-2.388;2022-08-19T04:13:11;98924.97;;;14.42;72.38
43804;BME280;29430;52.924;-2.388;2022-08-19T04:18:03;98932.28;;;14.36;73.10
43804;BME280;29430;52.924;-2.388;2022-08-19T04:22:57;98939.94;;;14.34;73.54
43804;BME280;29430;52.924;-2.388;2022-08-19T04:27:49;98951.13;;;14.38;73.79
43804;BME280;29430;52.924;-2.388;2022-08-19T04:32:41;98938.59;;;14.37;73.67
43804;BME280;29430;52.924;-2.388;2022-08-19T04:37:34;98945.34;;;14.29;73.88
43804;BME280;29430;52.924;-2.388;2022-08-19T04:42:26;98950.19;;;14.22;74.35
43804;BME280;29430;52.924;-2.388;2022-08-19T04:47:30;98963.47;;;14.13;75.00
43804;BME280;29430;52.924;-2.388;2022-08-19T04:52:43;98972.91;;;14.00;75.11
43804;BME280;29430;52.924;-2.388;2022-08-19T04:57:35;98969.56;;;13.93;75.41
43804;BME280;29430;52.924;-2.388;2022-08-19T05:02:31;98972.53;;;13.86;75.00
43804;BME280;29430;52.924;-2.388;2022-08-19T05:07:23;98976.53;;;13.78;75.44
43804;BME280;29430;52.924;-2.388;2022-08-19T05:12:15;98978.31;;;13.68;76.03
43804;BME280;29430;52.924;-2.388;2022-08-19T05:17:07;98979.34;;;13.61;76.24
43804;BME280;29430;52.924;-2.388;2022-08-19T05:22:17;98993.94;;;13.50;76.19
43804;BME280;29430;52.924;-2.388;2022-08-19T05:27:26;98995.47;;;13.41;77.25
43804;BME280;29430;52.924;-2.388;2022-08-19T05:32:18;99001.75;;;13.41;77.39
43804;BME280;29430;52.924;-2.388;2022-08-19T05:37:10;99012.94;;;13.45;77.54
43804;BME280;29430;52.924;-2.388;2022-08-19T05:42:11;99011.38;;;13.49;77.85
43804;BME280;29430;52.924;-2.388;2022-08-19T05:47:05;99017.97;;;13.81;78.90
43804;BME280;29430;52.924;-2.388;2022-08-19T05:51:58;99021.78;;;14.34;77.59
43804;BME280;29430;52.924;-2.388;2022-08-19T05:56:52;99022.50;;;14.94;75.73
43804;BME280;29430;52.924;-2.388;2022-08-19T06:01:45;99027.41;;;15.45;73.04
43804;BME280;29430;52.924;-2.388;2022-08-19T06:06:37;99026.50;;;15.92;71.94
43804;BME280;29430;52.924;-2.388;2022-08-19T06:16:26;99032.28;;;16.99;68.70
43804;BME280;29430;52.924;-2.388;2022-08-19T06:21:24;99019.78;;;17.53;65.58
43804;BME280;29430;52.924;-2.388;2022-08-19T06:26:16;99032.25;;;17.90;63.97
43804;BME280;29430;52.924;-2.388;2022-08-19T06:31:10;99027.31;;;18.32;63.57
43804;BME280;29430;52.924;-2.388;2022-08-19T06:36:02;99029.16;;;18.76;61.88
43804;BME280;29430;52.924;-2.388;2022-08-19T06:41:04;99042.06;;;19.34;60.56
43804;BME280;29430;52.924;-2.388;2022-08-19T06:45:58;99036.91;;;19.71;58.80
43804;BME280;29430;52.924;-2.388;2022-08-19T06:50:51;99024.28;;;20.13;57.02
43804;BME280;29430;52.924;-2.388;2022-08-19T06:55:43;99021.34;;;20.42;56.85
43804;BME280;29430;52.924;-2.388;2022-08-19T07:00:36;99035.34;;;20.79;56.06
43804;BME280;29430;52.924;-2.388;2022-08-19T07:05:28;99026.44;;;21.28;54.63
43804;BME280;29430;52.924;-2.388;2022-08-19T07:10:20;99030.13;;;21.66;53.10
43804;BME280;29430;52.924;-2.388;2022-08-19T07:15:12;99028.47;;;21.92;51.42
43804;BME280;29430;52.924;-2.388;2022-08-19T07:20:06;99040.63;;;22.28;51.56
43804;BME280;29430;52.924;-2.388;2022-08-19T07:25:00;99040.59;;;22.64;50.04
43804;BME280;29430;52.924;-2.388;2022-08-19T07:29:54;99043.41;;;22.96;49.06
43804;BME280;29430;52.924;-2.388;2022-08-19T07:34:47;99046.34;;;22.99;48.99
43804;BME280;29430;52.924;-2.388;2022-08-19T07:39:40;99054.03;;;23.34;48.67
43804;BME280;29430;52.924;-2.388;2022-08-19T07:44:33;99064.50;;;23.94;47.78
43804;BME280;29430;52.924;-2.388;2022-08-19T07:49:25;99059.47;;;24.40;45.37
43804;BME280;29430;52.924;-2.388;2022-08-19T07:54:18;99060.16;;;24.72;44.46
43804;BME280;29430;52.924;-2.388;2022-08-19T07:59:11;99064.78;;;25.07;44.06
43804;BME280;29430;52.924;-2.388;2022-08-19T08:04:03;99077.28;;;25.39;43.44
43804;BME280;29430;52.924;-2.388;2022-08-19T08:09:17;99074.78;;;25.85;41.30
43804;BME280;29430;52.924;-2.388;2022-08-19T08:14:25;99080.75;;;26.04;40.57
43804;BME280;29430;52.924;-2.388;2022-08-19T08:19:21;99076.28;;;26.12;39.98
43804;BME280;29430;52.924;-2.388;2022-08-19T08:24:17;99074.72;;;26.44;39.99
43804;BME280;29430;52.924;-2.388;2022-08-19T08:29:12;99072.31;;;26.55;39.66
43804;BME280;29430;52.924;-2.388;2022-08-19T08:34:04;99082.88;;;26.29;37.44
43804;BME280;29430;52.924;-2.388;2022-08-19T08:38:56;99075.03;;;25.32;37.32
43804;BME280;29430;52.924;-2.388;2022-08-19T08:43:53;99078.75;;;24.72;39.38
43804;BME280;29430;52.924;-2.388;2022-08-19T08:48:56;99059.69;;;25.26;38.62
43804;BME280;29430;52.924;-2.388;2022-08-19T08:53:51;99068.47;;;25.76;38.48
43804;BME280;29430;52.924;-2.388;2022-08-19T08:59:19;99072.97;;;26.19;37.42
43804;BME280;29430;52.924;-2.388;2022-08-19T09:04:12;99081.31;;;26.19;37.92
43804;BME280;29430;52.924;-2.388;2022-08-19T09:09:18;99087.13;;;26.47;37.70
43804;BME280;29430;52.924;-2.388;2022-08-19T09:19:53;99096.88;;;26.95;36.24
43804;BME280;29430;52.924;-2.388;2022-08-19T09:24:45;99089.81;;;27.31;37.35
43804;BME280;29430;52.924;-2.388;2022-08-19T09:29:37;99100.59;;;27.33;35.35
43804;BME280;29430;52.924;-2.388;2022-08-19T09:34:29;99091.66;;;27.40;35.12
43804;BME280;29430;52.924;-2.388;2022-08-19T09:39:28;99106.31;;;27.49;34.87
43804;BME280;29430;52.924;-2.388;2022-08-19T09:44:26;99108.16;;;27.69;35.30
43804;BME280;29430;52.924;-2.388;2022-08-19T09:49:19;99102.47;;;27.54;34.67
43804;BME280;29430;52.924;-2.388;2022-08-19T09:54:14;99106.31;;;27.15;35.69
43804;BME280;29430;52.924;-2.388;2022-08-19T09:59:14;99102.31;;;26.92;36.74
43804;BME280;29430;52.924;-2.388;2022-08-19T10:04:06;99095.63;;;26.72;35.48
43804;BME280;29430;52.924;-2.388;2022-08-19T10:09:13;99087.97;;;25.97;36.93
43804;BME280;29430;52.924;-2.388;2022-08-19T10:14:06;99092.28;;;25.47;38.53
43804;BME280;29430;52.924;-2.388;2022-08-19T10:18:58;99101.41;;;25.56;38.99
43804;BME280;29430;52.924;-2.388;2022-08-19T10:23:58;99094.78;;;25.78;39.57
43804;BME280;29430;52.924;-2.388;2022-08-19T10:28:50;99088.22;;;26.13;37.39
43804;BME280;29430;52.924;-2.388;2022-08-19T10:33:46;99089.22;;;25.78;37.43
43804;BME280;29430;52.924;-2.388;2022-08-19T10:38:49;99094.31;;;25.20;38.17
43804;BME280;29430;52.924;-2.388;2022-08-19T10:43:47;99099.81;;;24.64;39.19
43804;BME280;29430;52.924;-2.388;2022-08-19T10:48:40;99083.63;;;24.40;40.62
43804;BME280;29430;52.924;-2.388;2022-08-19T10:53:32;99071.84;;;24.95;39.99
43804;BME280;29430;52.924;-2.388;2022-08-19T10:58:26;99073.16;;;25.54;37.83
43804;BME280;29430;52.924;-2.388;2022-08-19T11:03:17;99075.56;;;25.94;36.43
43804;BME280;29430;52.924;-2.388;2022-08-19T11:08:10;99083.22;;;25.97;36.14
43804;BME280;29430;52.924;-2.388;2022-08-19T11:13:14;99096.69;;;25.57;36.23
43804;BME280;29430;52.924;-2.388;2022-08-19T11:18:05;99098.88;;;25.25;36.71
43804;BME280;29430;52.924;-2.388;2022-08-19T11:23:03;99087.84;;;24.90;36.83
43804;BME280;29430;52.924;-2.388;2022-08-19T11:27:55;99087.19;;;25.01;36.36
43804;BME280;29430;52.924;-2.388;2022-08-19T11:32:47;99106.13;;;24.99;36.51
43804;BME280;29430;52.924;-2.388;2022-08-19T11:37:40;99094.88;;;24.78;37.46
43804;BME280;29430;52.924;-2.388;2022-08-19T11:42:32;99097.28;;;25.06;36.37
43804;BME280;29430;52.924;-2.388;2022-08-19T11:47:42;99099.78;;;24.90;36.24
43804;BME280;29430;52.924;-2.388;2022-08-19T11:52:35;99104.19;;;24.74;37.04
43804;BME280;29430;52.924;-2.388;2022-08-19T11:57:27;99098.44;;;24.53;36.32
43804;BME280;29430;52.924;-2.388;2022-08-19T12:02:19;99097.47;;;24.92;36.80
43804;BME280;29430;52.924;-2.388;2022-08-19T12:07:11;99089.94;;;25.10;36.40
43804;BME280;29430;52.924;-2.388;2022-08-19T12:12:03;99094.38;;;24.94;35.55
43804;BME280;29430;52.924;-2.388;2022-08-19T12:16:55;99091.28;;;24.87;37.59
43804;BME280;29430;52.924;-2.388;2022-08-19T12:21:48;99088.13;;;25.14;36.96
43804;BME280;29430;52.924;-2.388;2022-08-19T12:26:40;99094.28;;;25.37;36.28
43804;BME280;29430;52.924;-2.388;2022-08-19T12:31:44;99087.06;;;25.45;34.91
43804;BME280;29430;52.924;-2.388;2022-08-19T12:36:37;99108.34;;;25.24;34.41
43804;BME280;29430;52.924;-2.388;2022-08-19T12:41:29;99109.75;;;24.82;35.38
43804;BME280;29430;52.924;-2.388;2022-08-19T12:46:21;99109.88;;;24.77;35.98
43804;BME280;29430;52.924;-2.388;2022-08-19T12:51:17;99106.63;;;24.66;35.17
43804;BME280;29430;52.924;-2.388;2022-08-19T12:56:12;99108.91;;;24.47;36.09
43804;BME280;29430;52.924;-2.388;2022-08-19T13:01:08;99102.19;;;24.48;35.62
43804;BME280;29430;52.924;-2.388;2022-08-19T13:06:00;99092.91;;;24.35;37.08
43804;BME280;29430;52.924;-2.388;2022-08-19T13:10:51;99105.13;;;24.34;37.05
43804;BME280;29430;52.924;-2.388;2022-08-19T13:15:44;99110.16;;;24.23;35.87
43804;BME280;29430;52.924;-2.388;2022-08-19T13:20:38;99106.25;;;24.16;35.33
43804;BME280;29430;52.924;-2.388;2022-08-19T13:25:43;99110.44;;;23.95;35.17
43804;BME280;29430;52.924;-2.388;2022-08-19T13:30:38;99108.25;;;23.75;35.71
43804;BME280;29430;52.924;-2.388;2022-08-19T13:35:51;99113.94;;;23.70;36.64
43804;BME280;29430;52.924;-2.388;2022-08-19T13:40:49;99115.44;;;23.76;36.07
43804;BME280;29430;52.924;-2.388;2022-08-19T13:45:41;99122.13;;;23.44;35.89
43804;BME280;29430;52.924;-2.388;2022-08-19T13:50:39;99117.97;;;23.23;36.74
43804;BME280;29430;52.924;-2.388;2022-08-19T13:55:32;99125.41;;;23.14;37.01
43804;BME280;29430;52.924;-2.388;2022-08-19T14:00:26;99122.22;;;23.07;37.43
43804;BME280;29430;52.924;-2.388;2022-08-19T14:05:19;99131.09;;;23.18;37.42
43804;BME280;29430;52.924;-2.388;2022-08-19T14:10:12;99129.66;;;23.20;38.53
43804;BME280;29430;52.924;-2.388;2022-08-19T14:15:07;99118.59;;;23.20;37.88
43804;BME280;29430;52.924;-2.388;2022-08-19T14:20:01;99125.28;;;23.05;37.71
43804;BME280;29430;52.924;-2.388;2022-08-19T14:25:02;99120.09;;;23.04;38.21
43804;BME280;29430;52.924;-2.388;2022-08-19T14:29:54;99124.59;;;23.00;38.78
43804;BME280;29430;52.924;-2.388;2022-08-19T14:34:46;99126.72;;;23.03;38.49
43804;BME280;29430;52.924;-2.388;2022-08-19T14:39:38;99117.94;;;23.01;38.36
43804;BME280;29430;52.924;-2.388;2022-08-19T14:44:31;99118.72;;;22.93;38.36
43804;BME280;29430;52.924;-2.388;2022-08-19T14:49:25;99131.53;;;22.88;38.61
43804;BME280;29430;52.924;-2.388;2022-08-19T14:54:26;99134.03;;;22.76;38.75
43804;BME280;29430;52.924;-2.388;2022-08-19T14:59:20;99143.31;;;22.58;39.25
43804;BME280;29430;52.924;-2.388;2022-08-19T15:04:13;99135.56;;;22.46;39.94
43804;BME280;29430;52.924;-2.388;2022-08-19T15:09:05;99132.94;;;22.41;40.46
43804;BME280;29430;52.924;-2.388;2022-08-19T15:13:56;99128.22;;;22.41;40.40
43804;BME280;29430;52.924;-2.388;2022-08-19T15:18:55;99127.41;;;22.27;40.44
43804;BME280;29430;52.924;-2.388;2022-08-19T15:23:49;99129.56;;;22.16;41.24
43804;BME280;29430;52.924;-2.388;2022-08-19T15:28:41;99139.09;;;21.96;41.90
43804;BME280;29430;52.924;-2.388;2022-08-19T15:33:35;99137.25;;;21.91;41.79
43804;BME280;29430;52.924;-2.388;2022-08-19T15:38:27;99139.84;;;21.88;41.85
43804;BME280;29430;52.924;-2.388;2022-08-19T15:43:19;99129.59;;;21.74;41.92
43804;BME280;29430;52.924;-2.388;2022-08-19T15:48:14;99134.50;;;21.77;42.37
43804;BME280;29430;52.924;-2.388;2022-08-19T15:53:07;99131.94;;;21.81;42.23
43804;BME280;29430;52.924;-2.388;2022-08-19T15:58:02;99150.16;;;21.96;42.61
43804;BME280;29430;52.924;-2.388;2022-08-19T16:03:19;99140.72;;;22.11;43.15
43804;BME280;29430;52.924;-2.388;2022-08-19T16:08:31;99145.41;;;22.10;41.62
43804;BME280;29430;52.924;-2.388;2022-08-19T16:13:39;99152.72;;;22.06;42.30
43804;BME280;29430;52.924;-2.388;2022-08-19T16:18:31;99150.56;;;22.03;41.83
43804;BME280;29430;52.924;-2.388;2022-08-19T16:23:28;99155.97;;;21.94;42.49
43804;BME280;29430;52.924;-2.388;2022-08-19T16:28:20;99160.38;;;21.95;41.93
43804;BME280;29430;52.924;-2.388;2022-08-19T16:33:14;99163.03;;;21.87;42.71
43804;BME280;29430;52.924;-2.388;2022-08-19T16:38:13;99159.53;;;21.81;42.78
43804;BME280;29430;52.924;-2.388;2022-08-19T16:43:05;99159.16;;;21.74;43.05
43804;BME280;29430;52.924;-2.388;2022-08-19T16:47:58;99150.13;;;21.54;41.96
43804;BME280;29430;52.924;-2.388;2022-08-19T16:52:50;99152.72;;;21.45;42.50
43804;BME280;29430;52.924;-2.388;2022-08-19T16:57:42;99150.19;;;21.35;42.99
43804;BME280;29430;52.924;-2.388;2022-08-19T17:02:34;99164.44;;;21.23;43.10
43804;BME280;29430;52.924;-2.388;2022-08-19T17:07:28;99154.28;;;21.05;42.79
43804;BME280;29430;52.924;-2.388;2022-08-19T17:12:24;99178.63;;;20.84;44.03
43804;BME280;29430;52.924;-2.388;2022-08-19T17:17:22;99184.88;;;20.70;44.58
43804;BME280;29430;52.924;-2.388;2022-08-19T17:22:19;99170.19;;;20.56;45.32
43804;BME280;29430;52.924;-2.388;2022-08-19T17:27:11;99166.28;;;20.57;45.73
43804;BME280;29430;52.924;-2.388;2022-08-19T17:32:03;99172.56;;;20.63;45.89
43804;BME280;29430;52.924;-2.388;2022-08-19T17:36:56;99166.97;;;20.49;46.13
43804;BME280;29430;52.924;-2.388;2022-08-19T17:41:48;99175.59;;;20.42;45.97
43804;BME280;29430;52.924;-2.388;2022-08-19T17:46:40;99182.75;;;20.43;46.44
43804;BME280;29430;52.924;-2.388;2022-08-19T17:56:24;99186.38;;;20.38;46.30
43804;BME280;29430;52.924;-2.388;2022-08-19T18:01:19;99184.59;;;20.29;46.49
43804;BME280;29430;52.924;-2.388;2022-08-19T18:06:15;99187.25;;;20.15;47.30
43804;BME280;29430;52.924;-2.388;2022-08-19T18:11:08;99187.34;;;20.04;47.75
43804;BME280;29430;52.924;-2.388;2022-08-19T18:16:01;99191.56;;;19.97;47.72
43804;BME280;29430;52.924;-2.388;2022-08-19T18:20:54;99193.63;;;19.86;47.89
43804;BME280;29430;52.924;-2.388;2022-08-19T18:25:46;99195.34;;;19.82;48.55
43804;BME280;29430;52.924;-2.388;2022-08-19T18:30:38;99188.50;;;19.74;49.07
43804;BME280;29430;52.924;-2.388;2022-08-19T18:35:30;99190.59;;;19.58;49.45
43804;BME280;29430;52.924;-2.388;2022-08-19T18:40:23;99190.41;;;19.49;49.60
43804;BME280;29430;52.924;-2.388;2022-08-19T18:45:34;99196.28;;;19.38;49.26
43804;BME280;29430;52.924;-2.388;2022-08-19T18:50:44;99202.44;;;19.29;50.19
43804;BME280;29430;52.924;-2.388;2022-08-19T18:55:36;99200.84;;;19.18;50.08
43804;BME280;29430;52.924;-2.388;2022-08-19T19:00:28;99209.19;;;19.08;50.09
43804;BME280;29430;52.924;-2.388;2022-08-19T19:05:20;99215.84;;;18.96;50.79
43804;BME280;29430;52.924;-2.388;2022-08-19T19:10:16;99217.03;;;18.85;51.28
43804;BME280;29430;52.924;-2.388;2022-08-19T19:15:08;99217.06;;;18.75;51.70
43804;BME280;29430;52.924;-2.388;2022-08-19T19:19:59;99220.72;;;18.65;52.38
43804;BME280;29430;52.924;-2.388;2022-08-19T19:24:51;99226.53;;;18.53;52.88
43804;BME280;29430;52.924;-2.388;2022-08-19T19:29:45;99241.66;;;18.46;53.20
43804;BME280;29430;52.924;-2.388;2022-08-19T19:34:42;99241.47;;;18.37;53.63
43804;BME280;29430;52.924;-2.388;2022-08-19T19:39:34;99254.97;;;18.23;54.05
43804;BME280;29430;52.924;-2.388;2022-08-19T19:44:41;99256.06;;;18.12;54.18
43804;BME280;29430;52.924;-2.388;2022-08-19T19:49:37;99262.44;;;17.97;54.35
43804;BME280;29430;52.924;-2.388;2022-08-19T19:54:50;99262.44;;;17.86;54.97
43804;BME280;29430;52.924;-2.388;2022-08-19T19:59:42;99269.28;;;17.79;55.45
43804;BME280;29430;52.924;-2.388;2022-08-19T20:04:41;99262.19;;;17.72;55.51
43804;BME280;29430;52.924;-2.388;2022-08-19T20:09:33;99265.75;;;17.68;55.68
43804;BME280;29430;52.924;-2.388;2022-08-19T20:14:44;99261.91;;;17.59;56.19
43804;BME280;29430;52.924;-2.388;2022-08-19T20:19:36;99275.34;;;17.45;56.43
43804;BME280;29430;52.924;-2.388;2022-08-19T20:24:30;99275.34;;;17.34;56.91
43804;BME280;29430;52.924;-2.388;2022-08-19T20:29:23;99269.88;;;17.24;57.37
43804;BME280;29430;52.924;-2.388;2022-08-19T20:34:30;99281.09;;;17.12;58.33
43804;BME280;29430;52.924;-2.388;2022-08-19T20:39:24;99280.78;;;16.98;58.87
43804;BME280;29430;52.924;-2.388;2022-08-19T20:44:15;99285.94;;;16.85;59.67
43804;BME280;29430;52.924;-2.388;2022-08-19T20:49:07;99285.09;;;16.79;59.81
43804;BME280;29430;52.924;-2.388;2022-08-19T20:53:59;99290.56;;;16.74;60.66
43804;BME280;29430;52.924;-2.388;2022-08-19T20:58:51;99296.03;;;16.69;60.64
43804;BME280;29430;52.924;-2.388;2022-08-19T21:03:50;99287.78;;;16.63;61.86
43804;BME280;29430;52.924;-2.388;2022-08-19T21:08:42;99287.75;;;16.53;62.32
43804;BME280;29430;52.924;-2.388;2022-08-19T21:13:35;99297.56;;;16.44;62.79
43804;BME280;29430;52.924;-2.388;2022-08-19T21:18:27;99291.78;;;16.35;63.31
43804;BME280;29430;52.924;-2.388;2022-08-19T21:23:22;99285.44;;;16.29;63.75
43804;BME280;29430;52.924;-2.388;2022-08-19T21:28:14;99286.19;;;16.15;64.44
43804;BME280;29430;52.924;-2.388;2022-08-19T21:33:27;99292.72;;;16.08;65.37
43804;BME280;29430;52.924;-2.388;2022-08-19T21:38:22;99294.59;;;16.03;65.78
43804;BME280;29430;52.924;-2.388;2022-08-19T21:43:14;99285.25;;;15.93;66.60
43804;BME280;29430;52.924;-2.388;2022-08-19T21:48:06;99286.59;;;15.91;66.19
43804;BME280;29430;52.924;-2.388;2022-08-19T21:52:59;99291.50;;;15.89;66.33
43804;BME280;29430;52.924;-2.388;2022-08-19T21:57:51;99297.25;;;15.87;66.61
43804;BME280;29430;52.924;-2.388;2022-08-19T22:02:44;99293.16;;;15.90;66.61
43804;BME280;29430;52.924;-2.388;2022-08-19T22:07:35;99297.78;;;15.89;66.79
43804;BME280;29430;52.924;-2.388;2022-08-19T22:12:30;99295.84;;;15.85;67.39
43804;BME280;29430;52.924;-2.388;2022-08-19T22:17:22;99296.66;;;15.80;67.27
43804;BME280;29430;52.924;-2.388;2022-08-19T22:22:22;99297.94;;;15.72;67.73
43804;BME280;29430;52.924;-2.388;2022-08-19T22:27:14;99300.34;;;15.69;68.19
43804;BME280;29430;52.924;-2.388;2022-08-19T22:32:07;99298.19;;;15.71;68.07
43804;BME280;29430;52.924;-2.388;2022-08-19T22:37:19;99293.53;;;15.66;68.07
43804;BME280;29430;52.924;-2.388;2022-08-19T22:42:12;99299.50;;;15.63;68.38
43804;BME280;29430;52.924;-2.388;2022-08-19T22:47:04;99299.16;;;15.54;68.86
43804;BME280;29430;52.924;-2.388;2022-08-19T22:51:56;99304.59;;;15.49;69.37
43804;BME280;29430;52.924;-2.388;2022-08-19T22:57:08;99303.41;;;15.40;70.17
43804;BME280;29430;52.924;-2.388;2022-08-19T23:02:02;99297.06;;;15.34;69.89
43804;BME280;29430;52.924;-2.388;2022-08-19T23:06:54;99303.88;;;15.32;70.19
43804;BME280;29430;52.924;-2.388;2022-08-19T23:11:46;99296.97;;;15.24;70.31
43804;BME280;29430;52.924;-2.388;2022-08-19T23:16:38;99302.41;;;15.19;70.54
43804;BME280;29430;52.924;-2.388;2022-08-19T23:21:32;99297.44;;;15.16;71.01
43804;BME280;29430;52.924;-2.388;2022-08-19T23:26:25;99297.41;;;15.11;71.31
43804;BME280;29430;52.924;-2.388;2022-08-19T23:31:16;99289.41;;;15.04;71.77
43804;BME280;29430;52.924;-2.388;2022-08-19T23:36:11;99288.56;;;14.98;72.56
43804;BME280;29430;52.924;-2.388;2022-08-19T23:41:05;99276.47;;;14.94;72.42
43804;BME280;29430;52.924;-2.388;2022-08-19T23:46:00;99275.28;;;14.85;72.80
43804;BME280;29430;52.924;-2.388;2022-08-19T23:51:03;99280.72;;;14.80;73.57
43804;BME280;29430;52.924;-2.388;2022-08-19T23:55:56;99263.19;;;14.76;73.77
